Echion — A8UY2 — position and weather

sailwx.info

Track history (hours):
 
Tides and Currents Weather Stations Pressure Air Temp Water Temp Dewpoint Dewpoint Depression Visibility Wind Speed Wind Dir Waves Ship Positions

Echion

Last reported at 2017-Sep-15 11:59 UTC. Time now 2017-Sep-21 09:03 UTC.
Position N 49°47' W 003°25'.

Length 88 m; draft 5.6 m.

Type: Cargo ship. MMSI: 636091961.

Date/timePositionNaut miles runAvg speedWind from/ knotsBaromVisibWave heightAir tempDewpointWater temp
2017-Sep-15 11:59N 49°47' W 003°25'4 8.6
2017-Sep-15 11:30N 49°50' W 003°20'4 8.6
2017-Sep-15 11:00N 49°52' W 003°14'5 9.4
2017-Sep-15 10:26N 49°54' W 003°06'4 9.8
2017-Sep-15 10:00N 49°56' W 003°01'510.1
2017-Sep-15 09:29N 49°58' W 002°53'49 9.4
2017-Sep-15 04:17N 50°12' W 001°40'50 7.9
2017-Sep-14 21:55N 50°26' W 000°24'410.1
2017-Sep-14 21:30N 50°28' W 000°18'510.1
2017-Sep-14 21:00N 50°29' W 000°10'710.0
2017-Sep-14 20:20N 50°31' W 000°00'3 9.7
2017-Sep-14 20:00N 50°32' E 000°04'5 9.3
2017-Sep-14 19:30N 50°33' E 000°12'4 9.1
2017-Sep-14 19:00N 50°34' E 000°18'4 8.6
2017-Sep-14 18:30N 50°36' E 000°25'4 8.2
2017-Sep-14 18:00N 50°37' E 000°31'4 8.1
2017-Sep-14 17:30N 50°39' E 000°37'5 8.2
2017-Sep-14 16:57N 50°41' E 000°43'4 8.0
2017-Sep-14 16:30N 50°44' E 000°47'4 8.4
2017-Sep-14 16:00N 50°46' E 000°52'16 9.1
2017-Sep-14 14:14N 50°56' E 001°12'210.3
2017-Sep-14 14:00N 50°58' E 001°15'510.8
2017-Sep-14 13:30N 51°01' E 001°21'511.1
2017-Sep-14 13:00N 51°05' E 001°28'611.3
2017-Sep-14 12:30N 51°08' E 001°35'511.0
2017-Sep-14 12:00N 51°12' E 001°42'510.3
2017-Sep-14 11:30N 51°15' E 001°48'5 9.5
2017-Sep-14 11:00N 51°19' E 001°53'4 8.9
2017-Sep-14 10:30N 51°22' E 001°57'4 7.4
2017-Sep-14 10:00N 51°25' E 002°02'4 7.8
2017-Sep-14 09:30N 51°23' E 002°08'4 7.5
2017-Sep-14 09:00N 51°22' E 002°13'3 7.0
2017-Sep-14 08:30N 51°21' E 002°19'3 6.6
2017-Sep-14 08:00N 51°22' E 002°24'3 6.5
2017-Sep-14 07:30N 51°23' E 002°29'3 6.4
2017-Sep-14 07:00N 51°23' E 002°34'4 6.7
2017-Sep-14 06:27N 51°23' E 002°40'3 6.6
2017-Sep-14 06:00N 51°22' E 002°44'3 6.3
2017-Sep-14 05:30N 51°22' E 002°49'4 7.8
2017-Sep-14 05:00N 51°23' E 002°55'4 8.0
2017-Sep-14 04:30N 51°24' E 003°02'4 7.9
2017-Sep-14 04:00N 51°24' E 003°08'4 8.5
2017-Sep-14 03:30N 51°25' E 003°15'4 8.7
2017-Sep-14 03:00N 51°25' E 003°22'5 9.0
2017-Sep-14 02:30N 51°25' E 003°29'5 9.2
2017-Sep-14 02:00N 51°26' E 003°36'4 7.1
2017-Sep-14 01:30N 51°26' E 003°42'510.2
2017-Sep-14 01:00N 51°22' E 003°47'510.4
2017-Sep-14 00:30N 51°22' E 003°55'510.6
2017-Sep-14 00:00N 51°26' E 003°60'510.5
2017-Sep-13 23:30N 51°22' E 004°05'5 9.9
2017-Sep-13 23:00N 51°23' E 004°13'510.6
2017-Sep-13 22:30N 51°18' E 004°17'4 7.6
2017-Sep-13 22:00N 51°15' E 004°19'3 6.6
2017-Sep-13 21:30N 51°13' E 004°23'5 9.6
2017-Sep-13 21:00N 51°09' E 004°20'2 4.1
2017-Sep-13 20:30N 51°07' E 004°18'1 1.3
2017-Sep-13 20:00N 51°06' E 004°18'3 5.5
2017-Sep-13 19:30N 51°05' E 004°22'2 3.4
2017-Sep-13 19:00N 51°03' E 004°22'2 4.5
2017-Sep-13 18:30N 51°01' E 004°22'1 1.3
2017-Sep-13 18:00N 51°00' E 004°22'0 0.0
2017-Sep-13 17:30N 51°00' E 004°22'0 0.0
2017-Sep-13 16:59N 51°00' E 004°22'0 0.0
2017-Sep-13 16:30N 51°00' E 004°22'0 0.0
2017-Sep-13 15:59N 51°00' E 004°22'0 0.4
2017-Sep-13 15:30N 50°60' E 004°22'1 2.3
2017-Sep-13 15:00N 50°59' E 004°23'2 4.4
2017-Sep-13 14:30N 50°57' E 004°25'0 0.3
2017-Sep-13 13:50N 50°57' E 004°25'0 0.0
2017-Sep-13 13:11N 50°57' E 004°25'0 0.0
2017-Sep-13 12:59N 50°57' E 004°25'0 0.0
2017-Sep-13 12:17N 50°57' E 004°25'0 0.0
2017-Sep-13 11:53N 50°57' E 004°25'0 0.0
2017-Sep-13 11:17N 50°57' E 004°25'0 0.0
2017-Sep-13 10:53N 50°57' E 004°25'0 0.0
2017-Sep-13 10:26N 50°57' E 004°25'0 0.0
2017-Sep-13 09:44N 50°57' E 004°25'0 0.0
2017-Sep-13 07:41N 50°57' E 004°25'0 0.0
2017-Sep-13 07:23N 50°57' E 004°25'0 0.0
2017-Sep-13 06:14N 50°57' E 004°25'0 0.0
2017-Sep-13 02:38N 50°57' E 004°25'0 0.0
2017-Sep-13 02:20N 50°57' E 004°25'0 0.0
2017-Sep-13 01:59N 50°57' E 004°25'0 0.0
2017-Sep-13 01:11N 50°57' E 004°25'0 0.0
2017-Sep-13 00:56N 50°57' E 004°25'0 0.0
2017-Sep-12 22:02N 50°57' E 004°25'0 0.0
2017-Sep-12 21:41N 50°57' E 004°25'0 0.0
2017-Sep-12 20:20N 50°57' E 004°25'0 0.0
2017-Sep-12 18:32N 50°57' E 004°25'0 0.0
2017-Sep-12 18:29N 50°57' E 004°25'0 0.0
2017-Sep-12 17:59N 50°57' E 004°25'0 0.0
2017-Sep-12 15:38N 50°57' E 004°25'0 0.0
2017-Sep-12 15:17N 50°57' E 004°25'0 0.0
2017-Sep-12 14:56N 50°57' E 004°25'0 0.0
2017-Sep-12 14:27N 50°57' E 004°25'0 0.3
2017-Sep-12 13:59N 50°57' E 004°25'2 4.0
2017-Sep-12 13:23N 50°54' E 004°24'1 0.0
2017-Sep-10 20:57N 50°53' E 004°23'2 3.9
2017-Sep-10 20:27N 50°55' E 004°25'3 5.7
2017-Sep-10 20:00N 50°57' E 004°24'3 5.6
2017-Sep-10 19:30N 50°60' E 004°22'1 1.0
2017-Sep-10 19:00N 51°00' E 004°22'3 5.3
2017-Sep-10 18:30N 51°03' E 004°22'2 4.8
2017-Sep-10 17:59N 51°05' E 004°21'2 4.7
2017-Sep-10 17:30N 51°07' E 004°18'2 3.9
2017-Sep-10 17:00N 51°09' E 004°20'612.0
2017-Sep-10 16:31N 51°14' E 004°24'4 8.7
2017-Sep-10 16:01N 51°17' E 004°19'510.8
2017-Sep-10 15:31N 51°21' E 004°14'5 9.4
2017-Sep-10 15:01N 51°22' E 004°06'8 8.5
2017-Sep-10 14:01N 51°21' E 003°53'611.9
2017-Sep-10 13:30N 51°23' E 003°44'611.8
2017-Sep-10 13:00N 51°26' E 003°36'611.1
2017-Sep-10 12:30N 51°30' E 003°29'611.9
2017-Sep-10 12:00N 51°35' E 003°24'611.1
2017-Sep-10 11:26N 51°40' E 003°18'28 7.4
2017-Sep-10 07:36N 52°03' E 003°45'1 9.6
2017-Sep-10 07:30N 52°03' E 003°47'4 8.6
2017-Sep-10 07:01N 52°03' E 003°54'5 9.7
2017-Sep-10 06:31N 52°00' E 004°01'611.4
2017-Sep-10 06:00N 51°58' E 004°09'510.7
2017-Sep-10 05:31N 51°54' E 004°16'1 2.6
2017-Sep-10 05:01N 51°53' E 004°17'0 0.1
2017-Sep-10 04:29N 51°53' E 004°16'0 0.0
2017-Sep-10 03:59N 51°53' E 004°16'0 0.0
2017-Sep-10 03:26N 51°53' E 004°16'0 0.0
2017-Sep-10 02:59N 51°53' E 004°16'0 0.0
2017-Sep-10 02:29N 51°53' E 004°16'0 0.0
2017-Sep-10 01:56N 51°53' E 004°16'0 0.0
2017-Sep-10 01:26N 51°53' E 004°16'0 0.0
2017-Sep-10 00:56N 51°53' E 004°16'0 0.0
2017-Sep-10 00:26N 51°53' E 004°16'0 0.0
2017-Sep-09 23:59N 51°53' E 004°16'0 0.0
2017-Sep-09 23:29N 51°53' E 004°16'0 0.0
2017-Sep-09 22:56N 51°53' E 004°16'0 0.0
2017-Sep-09 22:29N 51°53' E 004°16'0 0.0
2017-Sep-09 21:56N 51°53' E 004°16'0 0.0
2017-Sep-09 21:26N 51°53' E 004°16'0 0.0
2017-Sep-09 20:56N 51°53' E 004°16'0 0.0
2017-Sep-09 20:29N 51°53' E 004°16'0 0.0
2017-Sep-09 19:59N 51°53' E 004°16'0 0.0
2017-Sep-09 19:29N 51°53' E 004°16'0 0.0
2017-Sep-09 18:59N 51°53' E 004°16'0 0.0
2017-Sep-09 18:29N 51°53' E 004°16'0 0.0
2017-Sep-09 17:29N 51°53' E 004°16'0 0.0
2017-Sep-09 16:59N 51°53' E 004°16'0 0.0
2017-Sep-09 16:26N 51°53' E 004°16'0 0.0
2017-Sep-09 15:59N 51°53' E 004°16'0 0.0
2017-Sep-09 15:29N 51°53' E 004°16'0 0.0
2017-Sep-09 14:59N 51°53' E 004°16'0 0.0
2017-Sep-09 14:26N 51°53' E 004°16'0 0.0
2017-Sep-09 13:59N 51°53' E 004°16'0 0.0
2017-Sep-09 13:29N 51°53' E 004°16'0 0.0
2017-Sep-09 12:59N 51°53' E 004°16'0 0.0
2017-Sep-09 12:29N 51°53' E 004°16'0 0.0
2017-Sep-09 11:59N 51°53' E 004°16'0 0.0
2017-Sep-09 11:23N 51°53' E 004°16'0 0.0
2017-Sep-09 10:59N 51°53' E 004°16'0 0.0
2017-Sep-09 10:29N 51°53' E 004°16'0 0.0
2017-Sep-09 09:59N 51°53' E 004°16'0 0.0
2017-Sep-09 09:26N 51°53' E 004°16'0 0.0
2017-Sep-09 08:56N 51°53' E 004°16'0 0.0
2017-Sep-09 08:29N 51°53' E 004°16'0 0.0
2017-Sep-09 07:59N 51°53' E 004°16'0 0.0
2017-Sep-09 07:29N 51°53' E 004°16'0 0.0
2017-Sep-09 06:59N 51°53' E 004°16'0 0.0
2017-Sep-09 06:29N 51°53' E 004°16'0 0.0
2017-Sep-09 05:59N 51°53' E 004°16'0 0.0
2017-Sep-09 05:29N 51°53' E 004°16'0 0.0
2017-Sep-09 04:59N 51°53' E 004°16'0 0.0
2017-Sep-09 04:29N 51°53' E 004°16'0 0.0
2017-Sep-09 03:59N 51°53' E 004°16'0 0.0
2017-Sep-09 03:29N 51°53' E 004°16'0 0.0
2017-Sep-09 02:50N 51°53' E 004°16'0 0.0
2017-Sep-09 02:29N 51°53' E 004°16'0 0.0
2017-Sep-09 01:59N 51°53' E 004°16'0 0.0
2017-Sep-09 01:26N 51°53' E 004°16'0 0.0
2017-Sep-09 00:59N 51°53' E 004°16'0 0.0
2017-Sep-09 00:26N 51°53' E 004°16'0 0.0
2017-Sep-08 23:59N 51°53' E 004°16'0 0.0
2017-Sep-08 23:26N 51°53' E 004°16'0 0.0
2017-Sep-08 22:59N 51°53' E 004°16'0 0.0
2017-Sep-08 22:29N 51°53' E 004°16'0 0.0
2017-Sep-08 21:59N 51°53' E 004°16'0 0.0
2017-Sep-08 21:26N 51°53' E 004°16'0 0.0
2017-Sep-08 20:29N 51°53' E 004°16'0 0.0
2017-Sep-08 19:59N 51°53' E 004°16'0 0.0
2017-Sep-08 19:29N 51°53' E 004°16'0 0.0
2017-Sep-08 18:59N 51°53' E 004°16'0 0.0
2017-Sep-08 18:23N 51°53' E 004°16'0 0.0
2017-Sep-08 17:56N 51°53' E 004°16'0 0.0
2017-Sep-08 17:29N 51°53' E 004°16'0 0.0
2017-Sep-08 16:59N 51°53' E 004°16'0 0.0
2017-Sep-08 16:26N 51°53' E 004°16'0 0.0
2017-Sep-08 15:59N 51°53' E 004°16'0 0.0
2017-Sep-08 15:29N 51°53' E 004°16'0 0.0
2017-Sep-08 14:56N 51°53' E 004°16'0 0.0
2017-Sep-08 14:29N 51°53' E 004°16'0 0.0
2017-Sep-08 13:59N 51°53' E 004°16'0 0.0
2017-Sep-08 13:26N 51°53' E 004°16'0 0.0
2017-Sep-08 12:59N 51°53' E 004°16'0 0.0
2017-Sep-08 12:27N 51°53' E 004°16'0 0.6
2017-Sep-08 12:00N 51°53' E 004°17'2 3.7
2017-Sep-08 11:30N 51°55' E 004°15'4 7.4
2017-Sep-08 11:00N 51°57' E 004°10'4 7.4
2017-Sep-08 10:30N 51°59' E 004°05'4 8.0
2017-Sep-08 10:00N 51°60' E 003°59'4 8.3
2017-Sep-08 09:30N 52°01' E 003°52'3 6.4
2017-Sep-08 09:00N 51°60' E 003°48'58 8.9
2017-Sep-08 02:25N 51°34' E 002°23'511.5
2017-Sep-08 01:59N 51°30' E 002°18'511.0
2017-Sep-08 01:30N 51°26' E 002°13'510.4
2017-Sep-08 01:01N 51°21' E 002°10'610.8
2017-Sep-08 00:30N 51°16' E 002°06'611.6
2017-Sep-08 00:01N 51°12' E 001°59'611.3
2017-Sep-07 23:30N 51°09' E 001°52'611.1
2017-Sep-07 23:00N 51°05' E 001°46'510.8
2017-Sep-07 22:30N 51°01' E 001°40'5 9.7
2017-Sep-07 22:00N 50°57' E 001°35'5 8.8
2017-Sep-07 21:28N 50°54' E 001°30'111 8.7
2017-Sep-07 08:49N 50°06' W 001°07'413.0
2017-Sep-07 08:30N 50°05' W 001°13'613.0
2017-Sep-07 08:00N 50°03' W 001°23'713.0
2017-Sep-07 07:30N 50°01' W 001°33'612.7
2017-Sep-07 07:00N 49°60' W 001°42'612.0
2017-Sep-07 06:30N 49°58' W 001°51'59 8.0
2017-Sep-06 23:06N 49°39' W 003°17'1 8.3
2017-Sep-06 23:00N 49°38' W 003°18'4 8.3
2017-Sep-06 22:30N 49°36' W 003°24'5 8.5
2017-Sep-06 21:53N 49°33' W 003°31'3 8.7
2017-Sep-06 21:30N 49°32' W 003°36'15 9.2
2017-Sep-06 19:52N 49°24' W 003°55'410.0
2017-Sep-06 19:28N 49°22' W 004°01'4511.0
2017-Sep-06 15:23N 48°59' W 004°59'710.9
2017-Sep-06 14:45N 48°56' W 005°09'310.5
2017-Sep-06 14:30N 48°55' W 005°12'10 9.7
2017-Sep-06 13:27N 48°50' W 005°26'30 7.9
2017-Sep-06 09:43N 48°26' W 005°52'42 7.3
2017-Sep-06 03:58N 47°46' W 006°09'12 8.7
2017-Sep-06 02:33N 47°34' W 006°13'  
Track history (hours):
 
Tides and Currents Weather Stations Pressure Air Temp Water Temp Dewpoint Dewpoint Depression Visibility Wind Speed Wind Dir Waves Ship Positions

Echion

Last reported at 2017-Sep-15 11:59 UTC. Time now 2017-Sep-21 09:03 UTC.
Position N 49°47' W 003°25'.

Length 88 m; draft 5.6 m.

Type: Cargo ship. MMSI: 636091961.

Date/timePositionNaut miles runAvg speedWind from/ knotsBaromVisibWave heightAir tempDewpointWater temp
2017-Sep-15 11:59N 49°47' W 003°25'4 8.6
2017-Sep-15 11:30N 49°50' W 003°20'4 8.6
2017-Sep-15 11:00N 49°52' W 003°14'5 9.4
2017-Sep-15 10:26N 49°54' W 003°06'4 9.8
2017-Sep-15 10:00N 49°56' W 003°01'510.1
2017-Sep-15 09:29N 49°58' W 002°53'49 9.4
2017-Sep-15 04:17N 50°12' W 001°40'50 7.9
2017-Sep-14 21:55N 50°26' W 000°24'410.1
2017-Sep-14 21:30N 50°28' W 000°18'510.1
2017-Sep-14 21:00N 50°29' W 000°10'710.0
2017-Sep-14 20:20N 50°31' W 000°00'3 9.7
2017-Sep-14 20:00N 50°32' E 000°04'5 9.3
2017-Sep-14 19:30N 50°33' E 000°12'4 9.1
2017-Sep-14 19:00N 50°34' E 000°18'4 8.6
2017-Sep-14 18:30N 50°36' E 000°25'4 8.2
2017-Sep-14 18:00N 50°37' E 000°31'4 8.1
2017-Sep-14 17:30N 50°39' E 000°37'5 8.2
2017-Sep-14 16:57N 50°41' E 000°43'4 8.0
2017-Sep-14 16:30N 50°44' E 000°47'4 8.4
2017-Sep-14 16:00N 50°46' E 000°52'16 9.1
2017-Sep-14 14:14N 50°56' E 001°12'210.3
2017-Sep-14 14:00N 50°58' E 001°15'510.8
2017-Sep-14 13:30N 51°01' E 001°21'511.1
2017-Sep-14 13:00N 51°05' E 001°28'611.3
2017-Sep-14 12:30N 51°08' E 001°35'511.0
2017-Sep-14 12:00N 51°12' E 001°42'510.3
2017-Sep-14 11:30N 51°15' E 001°48'5 9.5
2017-Sep-14 11:00N 51°19' E 001°53'4 8.9
2017-Sep-14 10:30N 51°22' E 001°57'4 7.4
2017-Sep-14 10:00N 51°25' E 002°02'4 7.8
2017-Sep-14 09:30N 51°23' E 002°08'4 7.5
2017-Sep-14 09:00N 51°22' E 002°13'3 7.0
2017-Sep-14 08:30N 51°21' E 002°19'3 6.6
2017-Sep-14 08:00N 51°22' E 002°24'3 6.5
2017-Sep-14 07:30N 51°23' E 002°29'3 6.4
2017-Sep-14 07:00N 51°23' E 002°34'4 6.7
2017-Sep-14 06:27N 51°23' E 002°40'3 6.6
2017-Sep-14 06:00N 51°22' E 002°44'3 6.3
2017-Sep-14 05:30N 51°22' E 002°49'4 7.8
2017-Sep-14 05:00N 51°23' E 002°55'4 8.0
2017-Sep-14 04:30N 51°24' E 003°02'4 7.9
2017-Sep-14 04:00N 51°24' E 003°08'4 8.5
2017-Sep-14 03:30N 51°25' E 003°15'4 8.7
2017-Sep-14 03:00N 51°25' E 003°22'5 9.0
2017-Sep-14 02:30N 51°25' E 003°29'5 9.2
2017-Sep-14 02:00N 51°26' E 003°36'4 7.1
2017-Sep-14 01:30N 51°26' E 003°42'510.2
2017-Sep-14 01:00N 51°22' E 003°47'510.4
2017-Sep-14 00:30N 51°22' E 003°55'510.6
2017-Sep-14 00:00N 51°26' E 003°60'510.5
2017-Sep-13 23:30N 51°22' E 004°05'5 9.9
2017-Sep-13 23:00N 51°23' E 004°13'510.6
2017-Sep-13 22:30N 51°18' E 004°17'4 7.6
2017-Sep-13 22:00N 51°15' E 004°19'3 6.6
2017-Sep-13 21:30N 51°13' E 004°23'5 9.6
2017-Sep-13 21:00N 51°09' E 004°20'2 4.1
2017-Sep-13 20:30N 51°07' E 004°18'1 1.3
2017-Sep-13 20:00N 51°06' E 004°18'3 5.5
2017-Sep-13 19:30N 51°05' E 004°22'2 3.4
2017-Sep-13 19:00N 51°03' E 004°22'2 4.5
2017-Sep-13 18:30N 51°01' E 004°22'1 1.3
2017-Sep-13 18:00N 51°00' E 004°22'0 0.0
2017-Sep-13 17:30N 51°00' E 004°22'0 0.0
2017-Sep-13 16:59N 51°00' E 004°22'0 0.0
2017-Sep-13 16:30N 51°00' E 004°22'0 0.0
2017-Sep-13 15:59N 51°00' E 004°22'0 0.4
2017-Sep-13 15:30N 50°60' E 004°22'1 2.3
2017-Sep-13 15:00N 50°59' E 004°23'2 4.4
2017-Sep-13 14:30N 50°57' E 004°25'0 0.3
2017-Sep-13 13:50N 50°57' E 004°25'0 0.0
2017-Sep-13 13:11N 50°57' E 004°25'0 0.0
2017-Sep-13 12:59N 50°57' E 004°25'0 0.0
2017-Sep-13 12:17N 50°57' E 004°25'0 0.0
2017-Sep-13 11:53N 50°57' E 004°25'0 0.0
2017-Sep-13 11:17N 50°57' E 004°25'0 0.0
2017-Sep-13 10:53N 50°57' E 004°25'0 0.0
2017-Sep-13 10:26N 50°57' E 004°25'0 0.0
2017-Sep-13 09:44N 50°57' E 004°25'0 0.0
2017-Sep-13 07:41N 50°57' E 004°25'0 0.0
2017-Sep-13 07:23N 50°57' E 004°25'0 0.0
2017-Sep-13 06:14N 50°57' E 004°25'0 0.0
2017-Sep-13 02:38N 50°57' E 004°25'0 0.0
2017-Sep-13 02:20N 50°57' E 004°25'0 0.0
2017-Sep-13 01:59N 50°57' E 004°25'0 0.0
2017-Sep-13 01:11N 50°57' E 004°25'0 0.0
2017-Sep-13 00:56N 50°57' E 004°25'0 0.0
2017-Sep-12 22:02N 50°57' E 004°25'0 0.0
2017-Sep-12 21:41N 50°57' E 004°25'0 0.0
2017-Sep-12 20:20N 50°57' E 004°25'0 0.0
2017-Sep-12 18:32N 50°57' E 004°25'0 0.0
2017-Sep-12 18:29N 50°57' E 004°25'0 0.0
2017-Sep-12 17:59N 50°57' E 004°25'0 0.0
2017-Sep-12 15:38N 50°57' E 004°25'0 0.0
2017-Sep-12 15:17N 50°57' E 004°25'0 0.0
2017-Sep-12 14:56N 50°57' E 004°25'0 0.0
2017-Sep-12 14:27N 50°57' E 004°25'0 0.3
2017-Sep-12 13:59N 50°57' E 004°25'2 4.0
2017-Sep-12 13:23N 50°54' E 004°24'1 0.0
2017-Sep-10 20:57N 50°53' E 004°23'2 3.9
2017-Sep-10 20:27N 50°55' E 004°25'3 5.7
2017-Sep-10 20:00N 50°57' E 004°24'3 5.6
2017-Sep-10 19:30N 50°60' E 004°22'1 1.0
2017-Sep-10 19:00N 51°00' E 004°22'3 5.3
2017-Sep-10 18:30N 51°03' E 004°22'2 4.8
2017-Sep-10 17:59N 51°05' E 004°21'2 4.7
2017-Sep-10 17:30N 51°07' E 004°18'2 3.9
2017-Sep-10 17:00N 51°09' E 004°20'612.0
2017-Sep-10 16:31N 51°14' E 004°24'4 8.7
2017-Sep-10 16:01N 51°17' E 004°19'510.8
2017-Sep-10 15:31N 51°21' E 004°14'5 9.4
2017-Sep-10 15:01N 51°22' E 004°06'8 8.5
2017-Sep-10 14:01N 51°21' E 003°53'611.9
2017-Sep-10 13:30N 51°23' E 003°44'611.8
2017-Sep-10 13:00N 51°26' E 003°36'611.1
2017-Sep-10 12:30N 51°30' E 003°29'611.9
2017-Sep-10 12:00N 51°35' E 003°24'611.1
2017-Sep-10 11:26N 51°40' E 003°18'28 7.4
2017-Sep-10 07:36N 52°03' E 003°45'1 9.6
2017-Sep-10 07:30N 52°03' E 003°47'4 8.6
2017-Sep-10 07:01N 52°03' E 003°54'5 9.7
2017-Sep-10 06:31N 52°00' E 004°01'611.4
2017-Sep-10 06:00N 51°58' E 004°09'510.7
2017-Sep-10 05:31N 51°54' E 004°16'1 2.6
2017-Sep-10 05:01N 51°53' E 004°17'0 0.1
2017-Sep-10 04:29N 51°53' E 004°16'0 0.0
2017-Sep-10 03:59N 51°53' E 004°16'0 0.0
2017-Sep-10 03:26N 51°53' E 004°16'0 0.0
2017-Sep-10 02:59N 51°53' E 004°16'0 0.0
2017-Sep-10 02:29N 51°53' E 004°16'0 0.0
2017-Sep-10 01:56N 51°53' E 004°16'0 0.0
2017-Sep-10 01:26N 51°53' E 004°16'0 0.0
2017-Sep-10 00:56N 51°53' E 004°16'0 0.0
2017-Sep-10 00:26N 51°53' E 004°16'0 0.0
2017-Sep-09 23:59N 51°53' E 004°16'0 0.0
2017-Sep-09 23:29N 51°53' E 004°16'0 0.0
2017-Sep-09 22:56N 51°53' E 004°16'0 0.0
2017-Sep-09 22:29N 51°53' E 004°16'0 0.0
2017-Sep-09 21:56N 51°53' E 004°16'0 0.0
2017-Sep-09 21:26N 51°53' E 004°16'0 0.0
2017-Sep-09 20:56N 51°53' E 004°16'0 0.0
2017-Sep-09 20:29N 51°53' E 004°16'0 0.0
2017-Sep-09 19:59N 51°53' E 004°16'0 0.0
2017-Sep-09 19:29N 51°53' E 004°16'0 0.0
2017-Sep-09 18:59N 51°53' E 004°16'0 0.0
2017-Sep-09 18:29N 51°53' E 004°16'0 0.0
2017-Sep-09 17:29N 51°53' E 004°16'0 0.0
2017-Sep-09 16:59N 51°53' E 004°16'0 0.0
2017-Sep-09 16:26N 51°53' E 004°16'0 0.0
2017-Sep-09 15:59N 51°53' E 004°16'0 0.0
2017-Sep-09 15:29N 51°53' E 004°16'0 0.0
2017-Sep-09 14:59N 51°53' E 004°16'0 0.0
2017-Sep-09 14:26N 51°53' E 004°16'0 0.0
2017-Sep-09 13:59N 51°53' E 004°16'0 0.0
2017-Sep-09 13:29N 51°53' E 004°16'0 0.0
2017-Sep-09 12:59N 51°53' E 004°16'0 0.0
2017-Sep-09 12:29N 51°53' E 004°16'0 0.0
2017-Sep-09 11:59N 51°53' E 004°16'0 0.0
2017-Sep-09 11:23N 51°53' E 004°16'0 0.0
2017-Sep-09 10:59N 51°53' E 004°16'0 0.0
2017-Sep-09 10:29N 51°53' E 004°16'0 0.0
2017-Sep-09 09:59N 51°53' E 004°16'0 0.0
2017-Sep-09 09:26N 51°53' E 004°16'0 0.0
2017-Sep-09 08:56N 51°53' E 004°16'0 0.0
2017-Sep-09 08:29N 51°53' E 004°16'0 0.0
2017-Sep-09 07:59N 51°53' E 004°16'0 0.0
2017-Sep-09 07:29N 51°53' E 004°16'0 0.0
2017-Sep-09 06:59N 51°53' E 004°16'0 0.0
2017-Sep-09 06:29N 51°53' E 004°16'0 0.0
2017-Sep-09 05:59N 51°53' E 004°16'0 0.0
2017-Sep-09 05:29N 51°53' E 004°16'0 0.0
2017-Sep-09 04:59N 51°53' E 004°16'0 0.0
2017-Sep-09 04:29N 51°53' E 004°16'0 0.0
2017-Sep-09 03:59N 51°53' E 004°16'0 0.0
2017-Sep-09 03:29N 51°53' E 004°16'0 0.0
2017-Sep-09 02:50N 51°53' E 004°16'0 0.0
2017-Sep-09 02:29N 51°53' E 004°16'0 0.0
2017-Sep-09 01:59N 51°53' E 004°16'0 0.0
2017-Sep-09 01:26N 51°53' E 004°16'0 0.0
2017-Sep-09 00:59N 51°53' E 004°16'0 0.0
2017-Sep-09 00:26N 51°53' E 004°16'0 0.0
2017-Sep-08 23:59N 51°53' E 004°16'0 0.0
2017-Sep-08 23:26N 51°53' E 004°16'0 0.0
2017-Sep-08 22:59N 51°53' E 004°16'0 0.0
2017-Sep-08 22:29N 51°53' E 004°16'0 0.0
2017-Sep-08 21:59N 51°53' E 004°16'0 0.0
2017-Sep-08 21:26N 51°53' E 004°16'0 0.0
2017-Sep-08 20:29N 51°53' E 004°16'0 0.0
2017-Sep-08 19:59N 51°53' E 004°16'0 0.0
2017-Sep-08 19:29N 51°53' E 004°16'0 0.0
2017-Sep-08 18:59N 51°53' E 004°16'0 0.0
2017-Sep-08 18:23N 51°53' E 004°16'0 0.0
2017-Sep-08 17:56N 51°53' E 004°16'0 0.0
2017-Sep-08 17:29N 51°53' E 004°16'0 0.0
2017-Sep-08 16:59N 51°53' E 004°16'0 0.0
2017-Sep-08 16:26N 51°53' E 004°16'0 0.0
2017-Sep-08 15:59N 51°53' E 004°16'0 0.0
2017-Sep-08 15:29N 51°53' E 004°16'0 0.0
2017-Sep-08 14:56N 51°53' E 004°16'0 0.0
2017-Sep-08 14:29N 51°53' E 004°16'0 0.0
2017-Sep-08 13:59N 51°53' E 004°16'0 0.0
2017-Sep-08 13:26N 51°53' E 004°16'0 0.0
2017-Sep-08 12:59N 51°53' E 004°16'0 0.0
2017-Sep-08 12:27N 51°53' E 004°16'0 0.6
2017-Sep-08 12:00N 51°53' E 004°17'2 3.7
2017-Sep-08 11:30N 51°55' E 004°15'4 7.4
2017-Sep-08 11:00N 51°57' E 004°10'4 7.4
2017-Sep-08 10:30N 51°59' E 004°05'4 8.0
2017-Sep-08 10:00N 51°60' E 003°59'4 8.3
2017-Sep-08 09:30N 52°01' E 003°52'3 6.4
2017-Sep-08 09:00N 51°60' E 003°48'58 8.9
2017-Sep-08 02:25N 51°34' E 002°23'511.5
2017-Sep-08 01:59N 51°30' E 002°18'511.0
2017-Sep-08 01:30N 51°26' E 002°13'510.4
2017-Sep-08 01:01N 51°21' E 002°10'610.8
2017-Sep-08 00:30N 51°16' E 002°06'611.6
2017-Sep-08 00:01N 51°12' E 001°59'611.3
2017-Sep-07 23:30N 51°09' E 001°52'611.1
2017-Sep-07 23:00N 51°05' E 001°46'510.8
2017-Sep-07 22:30N 51°01' E 001°40'5 9.7
2017-Sep-07 22:00N 50°57' E 001°35'5 8.8
2017-Sep-07 21:28N 50°54' E 001°30'111 8.7
2017-Sep-07 08:49N 50°06' W 001°07'413.0
2017-Sep-07 08:30N 50°05' W 001°13'613.0
2017-Sep-07 08:00N 50°03' W 001°23'713.0
2017-Sep-07 07:30N 50°01' W 001°33'612.7
2017-Sep-07 07:00N 49°60' W 001°42'612.0
2017-Sep-07 06:30N 49°58' W 001°51'59 8.0
2017-Sep-06 23:06N 49°39' W 003°17'1 8.3
2017-Sep-06 23:00N 49°38' W 003°18'4 8.3
2017-Sep-06 22:30N 49°36' W 003°24'5 8.5
2017-Sep-06 21:53N 49°33' W 003°31'3 8.7
2017-Sep-06 21:30N 49°32' W 003°36'15 9.2
2017-Sep-06 19:52N 49°24' W 003°55'410.0
2017-Sep-06 19:28N 49°22' W 004°01'4511.0
2017-Sep-06 15:23N 48°59' W 004°59'710.9
2017-Sep-06 14:45N 48°56' W 005°09'310.5
2017-Sep-06 14:30N 48°55' W 005°12'10 9.7
2017-Sep-06 13:27N 48°50' W 005°26'30 7.9
2017-Sep-06 09:43N 48°26' W 005°52'42 7.3
2017-Sep-06 03:58N 47°46' W 006°09'12 8.7
2017-Sep-06 02:33N 47°34' W 006°13'  

Dump ship's entire track history